Time;durP1;ratioP1;P1;durP2;ratioP2;P2;SDS_P1;SDS_P2;PMS_P1;PMS_P2;Temp;Humidity;BMP_temperature;BMP_pressure;BME280_temperature;BME280_humidity;BME280_pressure;Samples;Min_cycle;Max_cycle;Signal;HPM_P1;HPM_P2
2023/12/11 00:00:29;;;;;;;30.40;6.90;;;;;;;8.65;100.00;99820.00;5041680;28;20508;-73
2023/12/11 00:02:55;;;;;;;36.40;7.85;;;;;;;8.62;100.00;99821.09;5039717;28;20602;-73
2023/12/11 00:05:20;;;;;;;36.20;8.13;;;;;;;8.59;100.00;99812.47;5049946;28;20500;-73
2023/12/11 00:07:46;;;;;;;34.58;8.90;;;;;;;8.57;100.00;99820.63;5053746;28;20049;-73
2023/12/11 00:10:11;;;;;;;28.52;6.95;;;;;;;8.55;100.00;99825.25;5053697;28;20056;-73
2023/12/11 00:12:37;;;;;;;35.75;7.70;;;;;;;8.54;100.00;99823.56;5050616;28;20103;-73
2023/12/11 00:15:02;;;;;;;30.17;7.80;;;;;;;8.53;100.00;99821.84;5042474;28;20021;-73
2023/12/11 00:17:28;;;;;;;34.97;7.00;;;;;;;8.52;100.00;99825.50;5055456;28;20040;-73
2023/12/11 00:19:53;;;;;;;27.17;7.28;;;;;;;8.51;100.00;99830.00;5055856;28;20024;-73
2023/12/11 00:22:19;;;;;;;32.72;7.95;;;;;;;8.53;100.00;99829.88;5046864;28;20395;-73
2023/12/11 00:24:44;;;;;;;32.85;8.95;;;;;;;8.55;100.00;99822.56;5044933;28;20031;-73
2023/12/11 00:27:11;;;;;;;36.05;7.60;;;;;;;8.54;100.00;99827.09;5049789;28;20411;-73
2023/12/11 00:29:37;;;;;;;32.63;7.32;;;;;;;8.54;100.00;99823.56;5056160;28;20017;-72
2023/12/11 00:32:03;;;;;;;35.83;7.85;;;;;;;8.52;100.00;99810.31;5061720;28;20022;-73
2023/12/11 00:34:28;;;;;;;29.10;6.82;;;;;;;8.49;100.00;99815.91;5065052;28;20040;-73
2023/12/11 00:36:54;;;;;;;36.30;7.95;;;;;;;8.50;100.00;99808.72;5060780;28;20102;-73
2023/12/11 00:39:19;;;;;;;32.58;7.25;;;;;;;8.50;100.00;99803.38;5065125;28;20043;-73
2023/12/11 00:41:45;;;;;;;34.08;7.55;;;;;;;8.52;100.00;99804.06;5062600;28;20051;-73
2023/12/11 00:44:10;;;;;;;36.10;7.55;;;;;;;8.52;100.00;99801.41;5069113;28;20101;-72
2023/12/11 00:46:35;;;;;;;33.47;7.68;;;;;;;8.53;100.00;99801.28;5066059;28;20013;-73
2023/12/11 00:49:02;;;;;;;36.42;9.23;;;;;;;8.56;100.00;99816.25;5073692;28;20062;-72
2023/12/11 00:51:27;;;;;;;34.92;8.98;;;;;;;8.56;100.00;99808.22;5068208;28;20224;-73
2023/12/11 00:53:52;;;;;;;34.03;8.90;;;;;;;8.57;100.00;99802.72;5060050;28;20036;-73
2023/12/11 00:56:18;;;;;;;27.38;7.32;;;;;;;8.63;100.00;99806.75;5063805;28;20086;-73
2023/12/11 00:58:43;;;;;;;35.65;7.78;;;;;;;8.64;100.00;99803.09;5065076;28;20067;-73
2023/12/11 01:01:09;;;;;;;33.67;8.27;;;;;;;8.65;100.00;99794.06;5068702;28;20048;-73
2023/12/11 01:03:37;;;;;;;32.58;7.88;;;;;;;8.63;100.00;99785.31;5070216;28;20025;-72
2023/12/11 01:06:03;;;;;;;33.70;8.25;;;;;;;8.63;100.00;99790.66;5061828;28;20551;-72
2023/12/11 01:08:30;;;;;;;36.67;8.88;;;;;;;8.62;100.00;99791.63;5061931;28;20091;-73
2023/12/11 01:10:55;;;;;;;29.58;7.65;;;;;;;8.62;100.00;99788.13;5057556;28;20013;-73
2023/12/11 01:13:21;;;;;;;34.25;8.10;;;;;;;8.64;100.00;99786.16;5066381;28;20055;-73
2023/12/11 01:15:46;;;;;;;34.67;8.18;;;;;;;8.64;100.00;99781.66;5070788;28;20024;-72
2023/12/11 01:18:11;;;;;;;38.85;7.45;;;;;;;8.65;100.00;99767.28;5059538;28;20036;-73
2023/12/11 01:20:38;;;;;;;35.72;7.75;;;;;;;8.64;100.00;99770.94;5065500;28;20055;-73
2023/12/11 01:23:04;;;;;;;28.35;7.30;;;;;;;8.66;100.00;99766.31;5062536;28;20091;-73
2023/12/11 01:25:29;;;;;;;32.13;7.18;;;;;;;8.68;100.00;99772.41;5061984;28;20021;-72
2023/12/11 01:27:54;;;;;;;38.97;7.55;;;;;;;8.69;100.00;99775.91;5067416;28;20162;-72
2023/12/11 01:30:19;;;;;;;39.28;8.27;;;;;;;8.70;100.00;99765.09;5067027;28;20029;-72
2023/12/11 01:32:45;;;;;;;31.33;6.85;;;;;;;8.71;100.00;99761.44;5069043;28;20352;-73
2023/12/11 01:35:10;;;;;;;27.92;7.03;;;;;;;8.71;100.00;99761.44;5063669;28;20093;-72
2023/12/11 01:37:36;;;;;;;39.85;7.60;;;;;;;8.73;100.00;99748.75;5060735;28;20822;-73
2023/12/11 01:40:02;;;;;;;34.25;7.82;;;;;;;8.74;100.00;99761.19;5056744;28;20035;-74
2023/12/11 01:42:27;;;;;;;36.15;7.25;;;;;;;8.73;100.00;99748.75;5042462;28;20033;-75
2023/12/11 01:44:52;;;;;;;34.13;8.02;;;;;;;8.75;100.00;99751.28;5040417;28;20063;-75
2023/12/11 01:47:18;;;;;;;28.88;6.60;;;;;;;8.76;100.00;99746.81;5048915;28;20058;-75
2023/12/11 01:49:43;;;;;;;26.95;7.53;;;;;;;8.79;100.00;99750.06;5048830;28;20028;-74
2023/12/11 01:52:09;;;;;;;41.00;7.22;;;;;;;8.82;100.00;99741.78;5053225;28;20049;-74
2023/12/11 01:54:37;;;;;;;29.08;7.15;;;;;;;8.86;100.00;99742.38;5058823;28;20062;-74
2023/12/11 01:57:03;;;;;;;33.38;7.18;;;;;;;8.88;100.00;99735.06;5046850;28;20500;-73
2023/12/11 01:59:28;;;;;;;29.98;8.10;;;;;;;8.90;100.00;99728.59;5049053;28;20060;-75
2023/12/11 02:01:54;;;;;;;28.77;7.00;;;;;;;8.92;100.00;99725.78;5063994;28;20058;-73
2023/12/11 02:04:19;;;;;;;34.10;6.95;;;;;;;8.94;100.00;99723.81;5068125;28;20075;-73
2023/12/11 02:06:45;;;;;;;33.38;6.95;;;;;;;8.95;100.00;99725.53;5064641;28;20051;-72
2023/12/11 02:09:11;;;;;;;33.63;7.57;;;;;;;8.98;100.00;99709.19;5063993;28;20039;-73
2023/12/11 02:11:36;;;;;;;36.67;7.18;;;;;;;8.98;100.00;99709.19;5070645;28;20040;-72
2023/12/11 02:14:01;;;;;;;30.30;7.00;;;;;;;8.98;100.00;99706.50;5070489;28;20043;-72
2023/12/11 02:16:27;;;;;;;28.38;7.22;;;;;;;8.99;100.00;99712.69;5064541;28;20033;-72
2023/12/11 02:18:52;;;;;;;28.90;7.18;;;;;;;8.99;100.00;99710.88;5058318;28;20045;-72
2023/12/11 02:21:18;;;;;;;31.45;7.20;;;;;;;9.00;100.00;99712.56;5066772;28;20021;-73
2023/12/11 02:23:46;;;;;;;31.52;7.25;;;;;;;9.00;100.00;99717.09;5071637;28;20031;-73
2023/12/11 02:26:16;;;;;;;31.38;8.10;;;;;;;9.00;100.00;99714.41;5064031;28;20021;-72
2023/12/11 02:28:42;;;;;;;31.45;7.20;;;;;;;9.02;100.00;99712.44;5059820;28;20018;-73
2023/12/11 02:31:07;;;;;;;30.30;8.52;;;;;;;9.01;100.00;99700.88;5062266;28;20028;-72
2023/12/11 02:33:33;;;;;;;30.20;7.75;;;;;;;9.01;100.00;99703.56;5059196;28;20034;-73
2023/12/11 02:35:59;;;;;;;34.38;6.63;;;;;;;9.01;100.00;99708.06;5069997;28;20101;-72
2023/12/11 02:38:24;;;;;;;29.45;7.25;;;;;;;9.01;100.00;99706.22;5061878;28;20047;-72
2023/12/11 02:40:49;;;;;;;39.63;6.70;;;;;;;9.00;100.00;99693.81;5073157;28;20100;-72
2023/12/11 02:43:15;;;;;;;30.95;8.35;;;;;;;9.01;100.00;99692.00;5058706;28;20037;-72
2023/12/11 02:45:42;;;;;;;31.08;7.00;;;;;;;8.99;100.00;99676.03;5066528;28;20025;-72
2023/12/11 02:48:07;;;;;;;27.77;7.20;;;;;;;8.98;100.00;99682.38;5059771;28;20081;-72
2023/12/11 02:50:33;;;;;;;26.90;6.30;;;;;;;8.97;100.00;99672.63;5052242;28;20049;-73
2023/12/11 02:52:59;;;;;;;36.08;7.30;;;;;;;8.98;100.00;99684.22;5044798;28;20532;-73
2023/12/11 02:55:25;;;;;;;25.88;5.45;;;;;;;8.97;100.00;99672.63;5043756;28;20039;-73
2023/12/11 02:57:57;;;;;;;27.63;5.93;;;;;;;8.98;100.00;99665.47;5052992;28;20029;-73
2023/12/11 03:00:22;;;;;;;25.17;6.10;;;;;;;8.97;100.00;99659.22;5056524;28;20039;-73
2023/12/11 03:02:47;;;;;;;25.80;6.32;;;;;;;8.95;100.00;99655.00;5057995;28;20020;-73
2023/12/11 03:05:13;;;;;;;27.38;6.25;;;;;;;8.92;100.00;99656.13;5056268;28;20388;-73
2023/12/11 03:07:38;;;;;;;26.35;6.28;;;;;;;8.90;100.00;99652.69;5053371;28;20068;-73
2023/12/11 03:10:04;;;;;;;30.25;6.28;;;;;;;8.87;100.00;99651.16;5047507;28;20053;-73
2023/12/11 03:12:29;;;;;;;27.05;6.13;;;;;;;8.86;100.00;99646.75;5050354;28;20020;-73
2023/12/11 03:14:54;;;;;;;34.63;6.60;;;;;;;8.85;100.00;99642.38;5040596;28;20718;-73
2023/12/11 03:17:20;;;;;;;25.08;6.15;;;;;;;8.82;100.00;99629.25;5051413;28;20481;-73
2023/12/11 03:19:45;;;;;;;32.45;6.53;;;;;;;8.82;100.00;99631.09;5052604;28;20069;-73
2023/12/11 03:22:11;;;;;;;37.83;8.00;;;;;;;8.81;100.00;99624.03;5041585;28;20060;-73
2023/12/11 03:24:36;;;;;;;28.00;6.40;;;;;;;8.81;100.00;99624.03;5045304;28;20020;-73
2023/12/11 03:27:01;;;;;;;30.42;6.30;;;;;;;8.79;100.00;99626.00;5056870;28;20365;-73
2023/12/11 03:29:27;;;;;;;28.10;6.75;;;;;;;8.78;100.00;99627.81;5050884;28;20028;-73
2023/12/11 03:31:52;;;;;;;25.52;6.55;;;;;;;8.81;100.00;99634.72;5046228;28;20040;-73
2023/12/11 03:34:17;;;;;;;27.63;5.88;;;;;;;8.83;100.00;99622.03;5043832;28;20033;-73
2023/12/11 03:36:43;;;;;;;30.00;6.20;;;;;;;8.83;100.00;99630.94;5046270;28;20032;-73
2023/12/11 03:39:09;;;;;;;27.30;5.05;;;;;;;8.84;100.00;99638.00;5048548;28;20032;-72
2023/12/11 03:41:34;;;;;;;24.75;5.53;;;;;;;8.85;100.00;99628.13;5046860;28;20033;-73
2023/12/11 03:43:59;;;;;;;22.33;4.72;;;;;;;8.86;100.00;99641.41;5046368;28;20029;-73
2023/12/11 03:46:25;;;;;;;28.75;5.70;;;;;;;8.87;100.00;99642.25;5044683;28;20067;-73
2023/12/11 03:48:50;;;;;;;26.30;5.03;;;;;;;8.88;100.00;99642.09;5045480;28;20110;-73
2023/12/11 03:51:15;;;;;;;27.60;6.03;;;;;;;8.88;100.00;99638.59;5045118;28;20044;-73
2023/12/11 03:53:41;;;;;;;25.55;5.55;;;;;;;8.88;100.00;99622.50;5047039;28;20032;-73
2023/12/11 03:56:07;;;;;;;26.95;5.45;;;;;;;8.87;100.00;99623.50;5048460;28;20048;-73
2023/12/11 03:58:32;;;;;;;23.13;5.43;;;;;;;8.88;100.00;99627.88;5049050;28;20032;-73
2023/12/11 04:00:57;;;;;;;27.45;6.53;;;;;;;8.86;100.00;99622.66;5060266;28;20081;-71
2023/12/11 04:03:23;;;;;;;31.40;6.00;;;;;;;8.84;100.00;99631.78;5057956;28;20116;-72
2023/12/11 04:05:48;;;;;;;20.98;5.35;;;;;;;8.84;100.00;99621.06;5062948;28;20032;-72
2023/12/11 04:08:13;;;;;;;22.50;5.32;;;;;;;8.84;100.00;99629.13;5064822;28;20024;-72
2023/12/11 04:10:39;;;;;;;30.35;6.40;;;;;;;8.83;100.00;99636.31;5057190;28;20031;-75
2023/12/11 04:13:04;;;;;;;33.75;6.95;;;;;;;8.83;100.00;99647.03;5048950;28;20037;-74
2023/12/11 04:15:29;;;;;;;28.10;5.75;;;;;;;8.85;100.00;99622.78;5043272;28;20051;-74
2023/12/11 04:17:55;;;;;;;27.60;5.72;;;;;;;8.83;100.00;99630.94;5048035;28;20037;-74
2023/12/11 04:20:20;;;;;;;22.80;5.03;;;;;;;8.83;100.00;99630.09;5042818;28;20395;-74
2023/12/11 04:22:45;;;;;;;25.52;5.68;;;;;;;8.82;100.00;99641.81;5050860;28;20029;-74
2023/12/11 04:25:11;;;;;;;24.55;5.60;;;;;;;8.78;100.00;99637.69;5050685;28;20043;-74
2023/12/11 04:27:36;;;;;;;26.55;5.82;;;;;;;8.74;100.00;99619.19;5055888;28;20115;-75
2023/12/11 04:30:02;;;;;;;27.50;5.85;;;;;;;8.70;100.00;99620.44;5046563;28;20090;-75
2023/12/11 04:32:27;;;;;;;24.52;5.93;;;;;;;8.69;100.00;99613.38;5049598;28;20025;-74
2023/12/11 04:34:52;;;;;;;36.42;6.75;;;;;;;8.68;100.00;99608.13;5049852;28;20544;-75
2023/12/11 04:37:18;;;;;;;23.83;6.10;;;;;;;8.65;100.00;99601.22;5047900;28;20492;-74
2023/12/11 04:39:43;;;;;;;27.58;6.78;;;;;;;8.64;100.00;99604.88;5054133;28;20024;-75
2023/12/11 04:42:08;;;;;;;27.13;5.07;;;;;;;8.63;100.00;99587.13;5045586;28;20036;-75
2023/12/11 04:44:34;;;;;;;26.60;5.25;;;;;;;8.61;100.00;99598.94;5046686;28;20139;-75
2023/12/11 04:46:59;;;;;;;28.30;6.65;;;;;;;8.62;100.00;99603.31;5051985;28;20660;-75
2023/12/11 04:49:24;;;;;;;26.25;5.53;;;;;;;8.59;100.00;99604.41;5049157;28;20511;-74
2023/12/11 04:51:50;;;;;;;21.67;5.50;;;;;;;8.58;100.00;99597.38;5044904;28;20439;-74
2023/12/11 04:54:15;;;;;;;21.02;5.10;;;;;;;8.56;100.00;99596.66;5045330;28;20416;-74
2023/12/11 04:56:40;;;;;;;24.20;5.93;;;;;;;8.56;100.00;99593.97;5050445;28;20056;-74
2023/12/11 04:59:06;;;;;;;24.70;6.22;;;;;;;8.55;100.00;99590.44;5053932;28;20041;-75
2023/12/11 05:01:31;;;;;;;24.88;5.90;;;;;;;8.57;100.00;99601.03;5056245;28;20098;-74
2023/12/11 05:03:57;;;;;;;24.13;5.90;;;;;;;8.59;100.00;99590.19;5055055;28;20399;-75
2023/12/11 05:06:22;;;;;;;27.98;6.30;;;;;;;8.59;100.00;99591.03;5057632;28;20029;-75
2023/12/11 05:08:47;;;;;;;26.17;5.90;;;;;;;8.57;100.00;99582.28;5051261;28;20028;-75
2023/12/11 05:11:13;;;;;;;32.92;6.47;;;;;;;8.56;100.00;99592.16;5049762;28;20051;-74
2023/12/11 05:13:38;;;;;;;25.02;5.32;;;;;;;8.56;100.00;99604.69;5048588;28;20037;-74
2023/12/11 05:16:04;;;;;;;28.83;5.35;;;;;;;8.56;100.00;99607.34;5049218;28;20397;-74
2023/12/11 05:18:29;;;;;;;25.10;5.95;;;;;;;8.56;100.00;99607.34;5042583;28;20032;-75
2023/12/11 05:20:54;;;;;;;25.08;5.40;;;;;;;8.55;100.00;99600.28;5046762;28;20417;-73
2023/12/11 05:23:20;;;;;;;27.90;6.20;;;;;;;8.54;100.00;99593.25;5044519;28;20052;-73
2023/12/11 05:25:45;;;;;;;31.00;6.00;;;;;;;8.55;100.00;99603.84;5045845;28;20216;-73
2023/12/11 05:28:11;;;;;;;26.73;5.47;;;;;;;8.55;100.00;99605.66;5044189;28;20029;-73
2023/12/11 05:30:36;;;;;;;24.80;6.28;;;;;;;8.55;100.00;99606.53;5046406;28;20092;-73
2023/12/11 05:33:01;;;;;;;30.15;6.38;;;;;;;8.54;100.00;99599.47;5052700;28;20430;-73
2023/12/11 05:35:27;;;;;;;25.15;5.40;;;;;;;8.56;100.00;99599.31;5045328;28;20057;-73
2023/12/11 05:37:52;;;;;;;27.55;6.40;;;;;;;8.55;100.00;99595.81;5052486;28;20158;-73
2023/12/11 05:40:17;;;;;;;28.58;5.88;;;;;;;8.57;100.00;99593.84;5052116;28;20039;-73
2023/12/11 05:42:43;;;;;;;25.65;6.20;;;;;;;8.57;100.00;99587.66;5046511;28;20808;-73
2023/12/11 05:45:09;;;;;;;26.13;6.35;;;;;;;8.59;100.00;99590.19;5050823;28;20059;-73
2023/12/11 05:47:35;;;;;;;29.75;5.65;;;;;;;8.60;100.00;99594.56;5054982;28;20100;-73
2023/12/11 05:50:00;;;;;;;27.92;6.72;;;;;;;8.61;100.00;99586.41;5058092;28;20054;-73
2023/12/11 05:52:26;;;;;;;28.20;6.20;;;;;;;8.63;100.00;99587.13;5052514;28;20103;-73
2023/12/11 05:54:51;;;;;;;27.73;5.63;;;;;;;8.62;100.00;99580.03;5043279;28;20024;-73
2023/12/11 05:57:16;;;;;;;28.42;5.70;;;;;;;8.63;100.00;99578.25;5045186;28;20287;-73
2023/12/11 05:59:42;;;;;;;22.73;5.50;;;;;;;8.64;100.00;99588.81;5045883;28;20028;-73
2023/12/11 06:02:07;;;;;;;31.63;6.47;;;;;;;8.65;100.00;99589.66;5047964;28;20036;-73
2023/12/11 06:04:33;;;;;;;21.80;6.00;;;;;;;8.66;100.00;99588.69;5054794;28;20102;-73
2023/12/11 06:06:58;;;;;;;30.50;5.82;;;;;;;8.67;100.00;99590.41;5056513;28;20092;-72
2023/12/11 06:09:23;;;;;;;21.75;6.15;;;;;;;8.67;100.00;99583.19;5052600;28;20125;-73
2023/12/11 06:11:49;;;;;;;27.20;5.78;;;;;;;8.68;100.00;99578.69;5047695;28;20029;-73
2023/12/11 06:14:14;;;;;;;25.45;5.88;;;;;;;8.67;100.00;99593.91;5047815;28;20032;-73
2023/12/11 06:16:40;;;;;;;30.70;6.82;;;;;;;8.67;100.00;99598.44;5053148;28;20054;-73
2023/12/11 06:19:05;;;;;;;31.45;6.72;;;;;;;8.67;100.00;99593.06;5045147;28;20060;-73
2023/12/11 06:21:30;;;;;;;25.20;5.43;;;;;;;8.65;100.00;99603.06;5050658;28;20056;-73
2023/12/11 06:23:56;;;;;;;26.77;6.60;;;;;;;8.64;100.00;99612.06;5045667;28;20047;-73
2023/12/11 06:26:28;;;;;;;27.05;5.72;;;;;;;8.62;100.00;99604.16;5051949;28;20445;-73
2023/12/11 06:28:53;;;;;;;29.08;6.43;;;;;;;8.60;100.00;99606.13;5050872;28;20258;-73
2023/12/11 06:31:18;;;;;;;27.02;5.63;;;;;;;8.58;100.00;99602.75;5048354;28;20104;-75
2023/12/11 06:33:44;;;;;;;27.98;5.60;;;;;;;8.58;100.00;99600.06;5044407;28;20055;-75
2023/12/11 06:36:10;;;;;;;27.45;6.30;;;;;;;8.57;100.00;99603.72;5047053;28;20533;-75
2023/12/11 06:38:35;;;;;;;27.65;6.15;;;;;;;8.57;100.00;99611.75;5052865;28;20079;-74
2023/12/11 06:41:00;;;;;;;27.45;5.65;;;;;;;8.55;100.00;99595.81;5057384;28;20120;-75
2023/12/11 06:43:26;;;;;;;28.67;6.50;;;;;;;8.56;100.00;99607.34;5051796;28;20094;-74
2023/12/11 06:45:51;;;;;;;28.98;6.50;;;;;;;8.57;100.00;99606.38;5052580;28;20038;-75
2023/12/11 06:48:16;;;;;;;26.42;5.95;;;;;;;8.58;100.00;99608.09;5046540;28;20515;-75
2023/12/11 06:50:42;;;;;;;29.08;6.45;;;;;;;8.58;100.00;99608.09;5049417;28;20060;-75
2023/12/11 06:53:08;;;;;;;28.85;5.18;;;;;;;8.57;100.00;99614.44;5050146;28;20438;-74
2023/12/11 06:55:33;;;;;;;30.77;6.32;;;;;;;8.56;100.00;99608.22;5047327;28;20016;-74
2023/12/11 06:57:59;;;;;;;21.08;5.60;;;;;;;8.55;100.00;99611.88;5058715;28;20044;-74
2023/12/11 07:00:25;;;;;;;22.73;5.22;;;;;;;8.57;100.00;99622.47;5048918;28;20025;-74
2023/12/11 07:02:50;;;;;;;26.92;5.68;;;;;;;8.56;100.00;99613.59;5051329;28;20571;-74
2023/12/11 07:05:16;;;;;;;33.10;5.70;;;;;;;8.58;100.00;99626.84;5049047;28;20043;-75
2023/12/11 07:07:41;;;;;;;32.95;6.53;;;;;;;8.61;100.00;99626.59;5055923;28;20020;-74
2023/12/11 07:10:07;;;;;;;26.60;5.20;;;;;;;8.61;100.00;99626.59;5056943;28;20030;-75
2023/12/11 07:12:33;;;;;;;23.35;4.70;;;;;;;8.60;100.00;99624.03;5056580;28;20089;-74
2023/12/11 07:14:58;;;;;;;18.83;4.50;;;;;;;8.63;100.00;99629.13;5042798;28;20029;-74
2023/12/11 07:17:23;;;;;;;27.63;5.65;;;;;;;8.64;100.00;99631.66;5055881;28;20047;-74
2023/12/11 07:19:49;;;;;;;23.10;4.97;;;;;;;8.66;100.00;99639.56;5056191;28;20053;-74
2023/12/11 07:22:14;;;;;;;30.10;5.85;;;;;;;8.66;100.00;99635.06;5054204;28;20027;-75
2023/12/11 07:24:40;;;;;;;22.63;4.63;;;;;;;8.68;100.00;99643.84;5051630;28;20033;-73
2023/12/11 07:27:05;;;;;;;23.15;5.28;;;;;;;8.69;100.00;99642.00;5049917;28;20017;-75
2023/12/11 07:29:30;;;;;;;23.10;5.57;;;;;;;8.69;100.00;99650.88;5048428;28;20081;-74
2023/12/11 07:31:56;;;;;;;24.98;4.72;;;;;;;8.68;100.00;99648.31;5040968;28;20464;-74
2023/12/11 07:34:24;;;;;;;23.33;5.10;;;;;;;8.68;100.00;99667.06;5047848;28;20029;-74
2023/12/11 07:36:51;;;;;;;21.77;4.78;;;;;;;8.68;100.00;99672.44;5039953;28;20329;-74
2023/12/11 07:39:17;;;;;;;22.13;4.68;;;;;;;8.67;100.00;99678.78;5039416;28;20384;-74
2023/12/11 07:41:42;;;;;;;30.33;4.95;;;;;;;8.65;100.00;99680.72;5043252;28;20101;-73
2023/12/11 07:44:07;;;;;;;25.83;5.28;;;;;;;8.63;100.00;99682.69;5030549;28;20056;-73
2023/12/11 07:46:33;;;;;;;22.75;5.13;;;;;;;8.59;100.00;99695.47;5051754;28;20421;-73
2023/12/11 07:48:58;;;;;;;31.45;5.50;;;;;;;8.56;100.00;99690.38;5046225;28;20034;-73
2023/12/11 07:51:24;;;;;;;21.75;4.18;;;;;;;8.56;100.00;99709.13;5061922;28;20051;-71
2023/12/11 07:53:50;;;;;;;17.95;4.55;;;;;;;8.53;100.00;99698.66;5054959;28;20112;-73
2023/12/11 07:56:25;;;;;;;25.25;4.72;;;;;;;8.54;100.00;99703.06;5057394;28;20028;-73
2023/12/11 07:58:51;;;;;;;20.98;4.88;;;;;;;8.51;100.00;99706.84;5065230;28;20100;-73
2023/12/11 08:01:17;;;;;;;22.42;4.93;;;;;;;8.52;100.00;99713.03;5067319;28;20350;-72
2023/12/11 08:03:43;;;;;;;25.00;4.72;;;;;;;8.50;100.00;99736.41;5070278;28;20025;-71
2023/12/11 08:06:08;;;;;;;21.02;4.40;;;;;;;8.51;100.00;99719.38;5056653;28;20064;-72
2023/12/11 08:08:40;;;;;;;25.25;4.63;;;;;;;8.50;100.00;99726.53;5064522;28;20021;-72
2023/12/11 08:11:13;;;;;;;30.65;4.78;;;;;;;8.50;100.00;99726.53;5067221;28;20024;-73
2023/12/11 08:13:38;;;;;;;22.92;3.83;;;;;;;8.51;100.00;99746.16;5055975;28;20029;-72
2023/12/11 08:16:04;;;;;;;23.52;4.38;;;;;;;8.51;100.00;99730.94;5057187;28;20039;-72
2023/12/11 08:18:30;;;;;;;24.63;4.53;;;;;;;8.50;100.00;99731.91;5049247;28;20029;-72
2023/12/11 08:20:55;;;;;;;20.15;3.95;;;;;;;8.50;100.00;99734.59;5058249;28;20606;-72
2023/12/11 08:23:21;;;;;;;20.38;4.43;;;;;;;8.52;100.00;99750.53;5063640;28;20092;-71
2023/12/11 08:25:47;;;;;;;21.67;4.35;;;;;;;8.52;100.00;99745.16;5066784;28;20086;-72
2023/12/11 08:28:12;;;;;;;23.40;4.90;;;;;;;8.54;100.00;99751.25;5067112;28;20029;-72
2023/12/11 08:30:37;;;;;;;22.15;4.75;;;;;;;8.57;100.00;99761.72;5066902;28;20028;-73
2023/12/11 08:33:03;;;;;;;17.05;3.95;;;;;;;8.59;100.00;99754.41;5063599;28;20017;-72
2023/12/11 08:35:28;;;;;;;21.77;4.35;;;;;;;8.63;100.00;99757.69;5068621;28;20017;-72
2023/12/11 08:37:53;;;;;;;16.80;3.78;;;;;;;8.66;100.00;99763.63;5065491;28;20558;-71
2023/12/11 08:40:20;;;;;;;17.17;3.42;;;;;;;8.68;100.00;99763.50;5063455;28;20032;-73
2023/12/11 08:42:46;;;;;;;15.85;3.80;;;;;;;8.71;100.00;99782.88;5055466;28;20025;-72
2023/12/11 08:45:12;;;;;;;16.02;3.92;;;;;;;8.74;100.00;99785.28;5070030;28;20032;-71
2023/12/11 08:47:41;;;;;;;16.00;4.07;;;;;;;8.77;100.00;99794.03;5058900;28;20021;-72
2023/12/11 08:50:07;;;;;;;21.55;4.55;;;;;;;8.77;100.00;99789.53;5060160;28;20033;-71
2023/12/11 08:52:33;;;;;;;31.15;5.22;;;;;;;8.79;100.00;99797.44;5068076;28;20085;-72
2023/12/11 08:54:58;;;;;;;21.20;4.60;;;;;;;8.80;100.00;99816.06;5057756;28;20047;-71
2023/12/11 08:57:24;;;;;;;16.80;4.25;;;;;;;8.80;100.00;99817.88;5068876;28;20100;-72
2023/12/11 08:59:49;;;;;;;23.95;4.85;;;;;;;8.78;100.00;99835.94;5069133;28;20029;-73
2023/12/11 09:02:14;;;;;;;29.63;4.32;;;;;;;8.77;100.00;99845.81;5067572;28;20025;-72
2023/12/11 09:04:43;;;;;;;21.80;4.65;;;;;;;8.73;100.00;99860.41;5067538;28;20021;-71
2023/12/11 09:07:09;;;;;;;19.55;4.38;;;;;;;8.66;100.00;99862.72;5067750;28;20380;-72
2023/12/11 09:09:36;;;;;;;24.13;4.72;;;;;;;8.59;100.00;99874.91;5064814;28;20850;-72
2023/12/11 09:12:01;;;;;;;20.77;4.38;;;;;;;8.53;100.00;99857.50;5066144;28;20025;-72
2023/12/11 09:14:27;;;;;;;23.70;5.50;;;;;;;8.50;100.00;99870.31;5063867;28;20050;-73
2023/12/11 09:16:52;;;;;;;28.65;4.57;;;;;;;8.49;100.00;99865.91;5065304;28;20024;-72
2023/12/11 09:19:18;;;;;;;18.90;4.03;;;;;;;8.48;100.00;99877.63;5068207;28;20028;-71
2023/12/11 09:21:43;;;;;;;21.40;4.30;;;;;;;8.48;100.00;99877.63;5056116;28;20020;-74
2023/12/11 09:24:09;;;;;;;17.85;3.85;;;;;;;8.45;100.00;99891.22;5059037;28;20050;-74
2023/12/11 09:26:35;;;;;;;19.73;4.05;;;;;;;8.45;100.00;99884.06;5048133;28;20044;-74
2023/12/11 09:29:00;;;;;;;20.02;4.00;;;;;;;8.46;100.00;99884.91;5055655;28;20040;-75
2023/12/11 09:31:26;;;;;;;19.33;3.95;;;;;;;8.45;100.00;99897.47;5053467;28;20021;-73
2023/12/11 09:33:51;;;;;;;15.98;3.28;;;;;;;8.44;100.00;99900.22;5048172;28;20021;-72
2023/12/11 09:36:18;;;;;;;16.20;3.33;;;;;;;8.45;100.00;99920.69;5051535;28;21804;-72
2023/12/11 09:38:43;;;;;;;16.25;3.60;;;;;;;8.47;100.00;99921.44;5054468;28;20032;-72
2023/12/11 09:41:09;;;;;;;18.42;3.45;;;;;;;8.49;100.00;99920.34;5054450;28;20051;-72
2023/12/11 09:43:36;;;;;;;17.10;3.15;;;;;;;8.53;100.00;99924.47;5051734;28;20059;-72
2023/12/11 09:46:05;;;;;;;19.17;4.20;;;;;;;8.55;100.00;99938.59;5052336;28;20036;-72
2023/12/11 09:48:31;;;;;;;17.05;3.67;;;;;;;8.59;100.00;99935.69;5058314;28;20036;-72
2023/12/11 09:50:57;;;;;;;16.85;4.03;;;;;;;8.62;100.00;99938.94;5057579;28;20445;-72
2023/12/11 09:53:22;;;;;;;23.20;4.20;;;;;;;8.66;100.00;99947.59;5051492;28;20507;-72
2023/12/11 09:55:48;;;;;;;15.40;3.50;;;;;;;8.69;100.00;99950.88;5055623;28;20040;-72
2023/12/11 09:58:14;;;;;;;22.00;3.63;;;;;;;8.70;100.00;99968.66;5047481;28;20053;-72
2023/12/11 10:00:41;;;;;;;20.73;3.72;;;;;;;8.73;100.00;99962.22;5052615;28;20020;-72
2023/12/11 10:03:08;;;;;;;14.32;3.67;;;;;;;8.77;100.00;99968.16;5043237;28;20041;-72
2023/12/11 10:05:35;;;;;;;24.38;4.50;;;;;;;8.80;100.00;99974.16;5058498;28;20025;-72
2023/12/11 10:08:01;;;;;;;21.35;4.10;;;;;;;8.82;100.00;99974.88;5050106;28;20104;-72
2023/12/11 10:10:33;;;;;;;22.40;3.55;;;;;;;8.84;100.00;99980.09;5049687;28;20120;-72
2023/12/11 10:13:01;;;;;;;21.15;4.28;;;;;;;8.88;100.00;99982.41;5049187;28;20041;-71
2023/12/11 10:15:27;;;;;;;17.17;3.92;;;;;;;8.91;100.00;99992.03;5047915;28;20029;-72
2023/12/11 10:18:03;;;;;;;18.67;3.80;;;;;;;8.94;100.00;99989.09;5044903;28;20021;-72
2023/12/11 10:20:29;;;;;;;19.25;4.00;;;;;;;8.99;100.00;99989.59;5048209;28;20024;-72
2023/12/11 10:22:55;;;;;;;15.25;3.55;;;;;;;9.02;100.00;100004.56;5052372;28;20036;-72
2023/12/11 10:25:29;;;;;;;16.20;3.95;;;;;;;9.05;100.00;99997.16;5050798;28;20103;-72
2023/12/11 10:28:05;;;;;;;18.08;3.10;;;;;;;9.06;100.00;99997.97;5052190;28;20172;-72
2023/12/11 10:30:30;;;;;;;19.73;3.45;;;;;;;9.06;100.00;99996.19;5051856;28;20036;-72
2023/12/11 10:33:00;;;;;;;11.90;2.70;;;;;;;9.02;100.00;100010.78;5063332;28;20033;-71
2023/12/11 10:35:25;;;;;;;15.05;3.17;;;;;;;9.02;100.00;100016.16;5067923;28;20520;-71
2023/12/11 10:37:51;;;;;;;20.65;4.07;;;;;;;9.04;100.00;100026.75;5071823;28;20032;-70
2023/12/11 10:40:16;;;;;;;11.75;2.72;;;;;;;9.05;100.00;100032.00;5065703;28;20028;-71
2023/12/11 10:42:42;;;;;;;13.50;2.95;;;;;;;9.07;100.00;100039.91;5055331;28;20028;-72
2023/12/11 10:45:07;;;;;;;21.08;3.83;;;;;;;9.09;100.00;100032.59;5046611;28;20024;-72
2023/12/11 10:47:34;;;;;;;17.02;4.10;;;;;;;9.10;100.00;100032.47;5057310;28;20025;-72
2023/12/11 10:50:02;;;;;;;11.63;2.97;;;;;;;9.09;100.00;100046.84;5015456;28;1053960;-72
2023/12/11 10:52:28;;;;;;;18.13;3.63;;;;;;;9.09;100.00;100041.50;5052538;28;20036;-72
2023/12/11 10:54:54;;;;;;;16.00;3.00;;;;;;;9.11;100.00;100046.72;5059789;28;20048;-72
2023/12/11 10:57:21;;;;;;;17.27;3.45;;;;;;;9.15;100.00;100045.50;5051673;28;20024;-72
2023/12/11 10:59:50;;;;;;;18.30;3.42;;;;;;;9.17;100.00;100056.13;5053971;28;20457;-72
2023/12/11 11:02:17;;;;;;;16.52;3.65;;;;;;;9.16;100.00;100057.91;5055632;28;20526;-73
2023/12/11 11:04:45;;;;;;;11.75;3.03;;;;;;;9.19;100.00;100065.72;5054466;28;20111;-73
2023/12/11 11:07:28;;;;;;;12.30;2.67;;;;;;;9.21;100.00;100073.63;5052171;28;20017;-73
2023/12/11 11:09:59;;;;;;;14.25;2.90;;;;;;;9.22;100.00;100070.88;5050635;28;20036;-74
2023/12/11 11:12:43;;;;;;;17.27;3.53;;;;;;;9.25;100.00;100075.09;5055999;28;20032;-73
2023/12/11 11:15:11;;;;;;;19.33;3.60;;;;;;;9.27;100.00;100075.84;5044739;28;20033;-74
2023/12/11 11:17:58;;;;;;;15.95;3.10;;;;;;;9.29;100.00;100081.94;5045272;28;20032;-74